createdAt,value
2023-04-27T00:00:44.366Z,12.93
2023-04-27T00:03:12.136Z,11.48
2023-04-27T00:05:39.728Z,18.77
2023-04-27T00:08:07.281Z,14.55
2023-04-27T00:10:34.252Z,9.88
2023-04-27T00:13:01.702Z,12.30
2023-04-27T00:15:28.899Z,11.27
2023-04-27T00:17:55.812Z,13.88
2023-04-27T00:20:22.432Z,13.93
2023-04-27T00:22:49.096Z,13.00
2023-04-27T00:25:15.759Z,10.45
2023-04-27T00:27:42.397Z,12.85
2023-04-27T00:30:09.627Z,11.23
2023-04-27T00:32:36.270Z,12.73
2023-04-27T00:35:02.833Z,10.77
2023-04-27T00:37:29.499Z,12.68
2023-04-27T00:39:56.287Z,8.85
2023-04-27T00:42:24.952Z,11.40
2023-04-27T00:44:51.650Z,9.65
2023-04-27T00:47:18.313Z,14.27
2023-04-27T00:49:45.100Z,14.25
2023-04-27T00:52:11.755Z,13.05
2023-04-27T00:54:38.875Z,12.48
2023-04-27T00:57:05.692Z,10.95
2023-04-27T00:59:32.295Z,13.13
2023-04-27T01:01:59.699Z,13.73
2023-04-27T01:04:27.111Z,16.50
2023-04-27T01:06:54.169Z,13.85
2023-04-27T01:09:21.437Z,14.60
2023-04-27T01:11:49.776Z,16.65
2023-04-27T01:14:17.301Z,16.95
2023-04-27T01:16:44.365Z,12.43
2023-04-27T01:19:11.271Z,15.98
2023-04-27T01:21:38.218Z,14.10
2023-04-27T01:24:08.551Z,12.13
2023-04-27T01:26:37.410Z,13.95
2023-04-27T01:29:04.069Z,14.93
2023-04-27T01:31:31.196Z,21.17
2023-04-27T01:33:57.777Z,15.25
2023-04-27T01:36:24.410Z,12.25
2023-04-27T01:38:51.558Z,12.00
2023-04-27T01:41:18.168Z,14.27
2023-04-27T01:43:44.772Z,16.85
2023-04-27T01:46:13.121Z,11.38
2023-04-27T01:48:40.674Z,18.08
2023-04-27T01:51:07.393Z,21.23
2023-04-27T01:53:34.271Z,16.08
2023-04-27T01:56:01.077Z,17.42
2023-04-27T01:58:28.219Z,16.90
2023-04-27T02:00:55.084Z,12.98
2023-04-27T02:03:22.197Z,15.75
2023-04-27T02:05:50.412Z,14.73
2023-04-27T02:08:17.002Z,14.63
2023-04-27T02:10:44.679Z,18.15
2023-04-27T02:13:11.299Z,14.05
2023-04-27T02:15:37.929Z,15.65
2023-04-27T02:18:04.640Z,17.77
2023-04-27T02:20:32.269Z,15.57
2023-04-27T02:23:01.427Z,14.70
2023-04-27T02:25:28.116Z,13.38
2023-04-27T02:27:55.178Z,13.43
2023-04-27T02:30:22.334Z,16.30
2023-04-27T02:32:49.702Z,13.35
2023-04-27T02:35:16.441Z,13.85
2023-04-27T02:37:43.130Z,13.18
2023-04-27T02:40:10.676Z,13.35
2023-04-27T02:42:38.894Z,13.95
2023-04-27T02:45:08.797Z,14.55
2023-04-27T02:47:36.412Z,11.73
2023-04-27T02:50:03.787Z,12.85
2023-04-27T02:52:33.950Z,12.52
2023-04-27T02:55:00.604Z,13.63
2023-04-27T02:57:27.883Z,13.38
2023-04-27T02:59:54.393Z,11.98
2023-04-27T03:02:21.070Z,11.88
2023-04-27T03:04:47.728Z,11.05
2023-04-27T03:07:14.430Z,13.35
2023-04-27T03:09:41.046Z,13.13
2023-04-27T03:12:07.609Z,13.30
2023-04-27T03:14:34.207Z,14.15
2023-04-27T03:17:00.955Z,13.23
2023-04-27T03:19:27.782Z,16.35
2023-04-27T03:21:54.318Z,13.85
2023-04-27T03:24:21.810Z,14.27
2023-04-27T03:26:49.507Z,11.30
2023-04-27T03:29:16.207Z,13.02
2023-04-27T03:31:42.882Z,12.30
2023-04-27T03:34:09.581Z,12.55
2023-04-27T03:36:38.819Z,13.55
2023-04-27T03:39:05.467Z,14.00
2023-04-27T03:41:32.057Z,14.60
2023-04-27T03:43:58.650Z,13.35
2023-04-27T03:46:25.742Z,14.73
2023-04-27T03:48:52.651Z,13.95
2023-04-27T03:51:19.805Z,16.05
2023-04-27T03:53:46.812Z,10.95
2023-04-27T03:56:13.763Z,13.35
2023-04-27T03:58:40.325Z,14.15
2023-04-27T04:01:18.775Z,13.32
2023-04-27T04:03:46.158Z,21.10
2023-04-27T04:06:12.956Z,18.02
2023-04-27T04:08:39.616Z,10.13
2023-04-27T04:11:06.143Z,11.70
2023-04-27T04:13:35.972Z,19.77
2023-04-27T04:16:07.918Z,15.23
2023-04-27T04:18:36.120Z,13.80
2023-04-27T04:21:03.724Z,13.45
2023-04-27T04:23:30.377Z,14.88
2023-04-27T04:25:57.731Z,25.23
2023-04-27T04:28:27.551Z,13.73
2023-04-27T04:30:54.336Z,14.25
2023-04-27T04:33:21.409Z,12.50
2023-04-27T04:35:48.666Z,15.27
2023-04-27T04:38:15.535Z,15.55
2023-04-27T04:40:44.455Z,18.08
2023-04-27T04:43:13.400Z,14.30
2023-04-27T04:45:41.910Z,15.83
2023-04-27T04:48:08.617Z,15.57
2023-04-27T04:50:35.940Z,13.40
2023-04-27T04:53:02.818Z,18.20
2023-04-27T04:55:29.512Z,16.48
2023-04-27T04:57:56.093Z,10.38
2023-04-27T05:00:22.867Z,14.57
2023-04-27T05:02:49.907Z,16.60
2023-04-27T05:05:16.839Z,20.48
2023-04-27T05:07:43.437Z,21.50
2023-04-27T05:10:10.603Z,23.25
2023-04-27T05:12:37.332Z,23.50
2023-04-27T05:15:04.864Z,21.45
2023-04-27T05:17:31.755Z,21.95
2023-04-27T05:19:58.380Z,24.05
2023-04-27T05:22:24.911Z,21.88
2023-04-27T05:24:52.008Z,24.58
2023-04-27T05:27:18.567Z,19.77
2023-04-27T05:29:45.114Z,15.57
2023-04-27T05:32:11.747Z,15.75
2023-04-27T05:34:38.337Z,17.98
2023-04-27T05:37:04.910Z,18.10
2023-04-27T05:39:31.493Z,17.98
2023-04-27T05:41:58.074Z,18.70
2023-04-27T05:44:28.524Z,22.45
2023-04-27T05:46:56.197Z,18.35
2023-04-27T05:49:23.530Z,17.30
2023-04-27T05:51:50.241Z,21.92
2023-04-27T05:54:16.784Z,18.17
2023-04-27T05:56:43.432Z,13.50
2023-04-27T05:59:10.218Z,19.38
2023-04-27T06:01:36.927Z,20.58
2023-04-27T06:04:04.148Z,17.00
2023-04-27T06:06:35.271Z,14.30
2023-04-27T06:09:01.933Z,19.02
2023-04-27T06:11:28.736Z,13.57
2023-04-27T06:13:55.451Z,22.13
2023-04-27T06:16:22.085Z,14.07
2023-04-27T06:18:50.855Z,16.88
2023-04-27T06:21:17.759Z,20.87
2023-04-27T06:23:44.514Z,16.20
2023-04-27T06:26:11.443Z,14.57
2023-04-27T06:28:38.238Z,16.05
2023-04-27T06:31:06.303Z,14.35
2023-04-27T06:33:33.485Z,15.32
2023-04-27T06:36:01.764Z,14.27
2023-04-27T06:38:28.458Z,14.75
2023-04-27T06:40:55.092Z,6.97
2023-04-27T06:43:21.851Z,11.63
2023-04-27T06:45:48.468Z,13.65
2023-04-27T06:48:15.171Z,11.85
2023-04-27T06:50:42.010Z,11.07
2023-04-27T06:53:08.781Z,9.60
2023-04-27T06:55:35.675Z,7.97
2023-04-27T06:58:03.474Z,7.40
2023-04-27T07:00:30.893Z,11.82
2023-04-27T07:02:57.610Z,8.75
2023-04-27T07:05:24.340Z,9.57
2023-04-27T07:07:51.135Z,11.00
2023-04-27T07:10:17.915Z,7.78
2023-04-27T07:12:44.708Z,14.55
2023-04-27T07:15:11.400Z,12.20
2023-04-27T07:17:38.270Z,5.65
2023-04-27T07:20:06.333Z,5.63
2023-04-27T07:22:33.508Z,8.93
2023-04-27T07:25:00.150Z,7.78
2023-04-27T07:27:27.434Z,4.45
2023-04-27T07:29:54.703Z,7.32
2023-04-27T07:32:21.960Z,6.68
2023-04-27T07:34:53.602Z,7.80
2023-04-27T07:37:21.707Z,11.95
2023-04-27T07:39:54.802Z,12.07
2023-04-27T07:42:24.979Z,7.25
2023-04-27T07:44:52.384Z,5.18
2023-04-27T07:47:18.955Z,5.95
2023-04-27T07:49:51.683Z,6.28
2023-04-27T07:52:20.420Z,5.50
2023-04-27T07:54:46.975Z,4.53
2023-04-27T07:57:13.555Z,4.00
2023-04-27T07:59:40.219Z,5.70
2023-04-27T08:02:19.235Z,8.77
2023-04-27T08:04:48.231Z,5.85
2023-04-27T08:07:17.253Z,10.07
2023-04-27T08:09:44.297Z,5.78
2023-04-27T08:12:10.995Z,5.25
2023-04-27T08:14:37.555Z,8.23
2023-04-27T08:17:05.205Z,8.40
2023-04-27T08:19:31.825Z,6.45
2023-04-27T08:21:58.372Z,7.47
2023-04-27T08:24:24.937Z,7.57
2023-04-27T08:26:51.448Z,7.00
2023-04-27T08:29:26.901Z,8.57
2023-04-27T08:31:59.744Z,8.15
2023-04-27T08:34:27.323Z,4.35
2023-04-27T08:36:54.273Z,6.93
2023-04-27T08:39:21.667Z,5.00
2023-04-27T08:41:48.235Z,6.70
2023-04-27T08:44:14.821Z,8.65
2023-04-27T08:46:41.751Z,6.47
2023-04-27T08:49:08.472Z,7.68
2023-04-27T08:51:35.427Z,9.02
2023-04-27T08:54:02.386Z,7.90
2023-04-27T08:56:30.120Z,9.30
2023-04-27T08:58:58.191Z,5.82
2023-04-27T09:01:26.242Z,6.45
2023-04-27T09:04:00.697Z,6.75
2023-04-27T09:06:35.437Z,7.30
2023-04-27T09:09:03.934Z,6.50
2023-04-27T09:11:33.714Z,7.57
2023-04-27T09:14:03.130Z,4.72
2023-04-27T09:16:31.188Z,9.13
2023-04-27T09:18:58.956Z,4.82
2023-04-27T09:21:31.226Z,4.43
2023-04-27T09:23:58.088Z,6.75
2023-04-27T09:26:27.334Z,5.55
2023-04-27T09:28:58.282Z,7.65
2023-04-27T09:31:32.740Z,5.68
2023-04-27T09:33:59.340Z,4.85
2023-04-27T09:36:26.601Z,4.47
2023-04-27T09:38:53.802Z,6.38
2023-04-27T09:41:21.628Z,5.35
2023-04-27T09:43:49.352Z,8.48
2023-04-27T09:46:16.305Z,7.55
2023-04-27T09:48:43.011Z,5.60
2023-04-27T09:51:09.766Z,6.00
2023-04-27T09:53:41.729Z,7.25
2023-04-27T09:56:33.188Z,6.72
2023-04-27T09:59:30.810Z,3.65
2023-04-27T10:02:07.241Z,6.88
2023-04-27T10:04:59.881Z,3.10
2023-04-27T10:07:27.691Z,5.65
2023-04-27T10:09:54.275Z,2.65
2023-04-27T10:12:26.950Z,5.15
2023-04-27T10:14:54.809Z,7.85
2023-04-27T10:17:48.587Z,4.65
2023-04-27T10:20:15.842Z,5.70
2023-04-27T10:22:50.111Z,7.32
2023-04-27T10:25:24.261Z,5.45
2023-04-27T10:28:01.937Z,3.80
2023-04-27T10:30:33.806Z,4.22
2023-04-27T10:33:08.526Z,3.53
2023-04-27T10:35:40.459Z,5.43
2023-04-27T10:38:11.085Z,4.97
2023-04-27T10:40:38.649Z,4.53
2023-04-27T10:43:29.264Z,6.60
2023-04-27T10:46:07.436Z,4.78
2023-04-27T10:48:34.075Z,5.35
2023-04-27T10:51:01.542Z,6.18
2023-04-27T10:53:34.268Z,4.55
2023-04-27T10:56:00.836Z,6.25
2023-04-27T10:58:37.840Z,5.38
2023-04-27T11:01:23.863Z,3.72
2023-04-27T11:03:56.476Z,5.95
2023-04-27T11:06:23.244Z,5.03
2023-04-27T11:08:49.845Z,3.85
2023-04-27T11:11:18.018Z,5.57
2023-04-27T11:13:44.768Z,4.35
2023-04-27T11:16:11.556Z,4.93
2023-04-27T11:18:38.432Z,6.10
2023-04-27T11:21:14.070Z,7.43
2023-04-27T11:23:42.732Z,6.32
2023-04-27T11:26:10.199Z,6.33
2023-04-27T11:28:37.083Z,7.40
2023-04-27T11:31:04.608Z,9.45
2023-04-27T11:33:31.269Z,6.43
2023-04-27T11:35:58.226Z,12.77
2023-04-27T11:38:26.606Z,8.07
2023-04-27T11:41:06.774Z,5.15
2023-04-27T11:43:33.812Z,11.73
2023-04-27T11:46:04.613Z,15.88
2023-04-27T11:48:33.868Z,6.50
2023-04-27T11:51:01.253Z,5.40
2023-04-27T11:53:32.111Z,8.65
2023-04-27T11:56:05.421Z,6.20
2023-04-27T11:58:36.606Z,4.57
2023-04-27T12:01:04.560Z,7.88
2023-04-27T12:03:31.996Z,3.83
2023-04-27T12:06:11.697Z,4.82
2023-04-27T12:08:43.139Z,7.18
2023-04-27T12:11:10.027Z,6.72
2023-04-27T12:13:36.534Z,9.60
2023-04-27T12:16:03.126Z,5.28
2023-04-27T12:18:29.712Z,5.13
2023-04-27T12:20:56.256Z,5.70
2023-04-27T12:23:23.139Z,5.20
2023-04-27T12:25:49.708Z,7.95
2023-04-27T12:28:19.084Z,6.03
2023-04-27T12:30:45.888Z,7.10
2023-04-27T12:33:12.551Z,9.90
2023-04-27T12:35:39.270Z,7.85
2023-04-27T12:38:05.837Z,7.47
2023-04-27T12:40:33.305Z,5.85
2023-04-27T12:43:01.192Z,6.07
2023-04-27T12:45:28.172Z,6.63
2023-04-27T12:48:03.375Z,4.95
2023-04-27T12:50:33.760Z,5.82
2023-04-27T12:53:00.703Z,5.63
2023-04-27T12:55:33.541Z,8.63
2023-04-27T12:58:01.025Z,4.55
2023-04-27T13:00:27.751Z,5.00
2023-04-27T13:02:54.573Z,5.68
2023-04-27T13:05:22.275Z,5.43
2023-04-27T13:07:48.985Z,6.38
2023-04-27T13:10:15.964Z,6.10
2023-04-27T13:12:42.683Z,6.03
2023-04-27T13:15:10.048Z,7.00
2023-04-27T13:17:37.025Z,5.53
2023-04-27T13:20:04.261Z,10.50
2023-04-27T13:22:30.819Z,7.85
2023-04-27T13:24:58.090Z,4.60
2023-04-27T13:27:28.275Z,7.28
2023-04-27T13:29:54.997Z,6.13
2023-04-27T13:32:22.314Z,5.28
2023-04-27T13:34:49.357Z,7.20
2023-04-27T13:37:16.615Z,3.75
2023-04-27T13:39:43.451Z,5.45
2023-04-27T13:42:10.296Z,6.15
2023-04-27T13:44:36.886Z,5.43
2023-04-27T13:47:03.511Z,5.32
2023-04-27T13:49:30.284Z,6.65
2023-04-27T13:51:56.910Z,6.22
2023-04-27T13:54:23.467Z,6.38
2023-04-27T13:56:50.228Z,8.00
2023-04-27T13:59:17.221Z,4.63
2023-04-27T14:01:43.930Z,4.85
2023-04-27T14:04:13.745Z,6.38
2023-04-27T14:06:40.527Z,5.75
2023-04-27T14:09:07.131Z,6.47
2023-04-27T14:11:42.152Z,5.90
2023-04-27T14:14:16.010Z,7.55
2023-04-27T14:16:42.628Z,6.82
2023-04-27T14:19:10.450Z,3.65
2023-04-27T14:21:37.015Z,6.28
2023-04-27T14:24:03.750Z,8.10
2023-04-27T14:26:30.359Z,5.97
2023-04-27T14:29:13.425Z,5.63
2023-04-27T14:31:41.046Z,7.05
2023-04-27T14:34:08.372Z,11.57
2023-04-27T14:36:35.053Z,5.78
2023-04-27T14:39:01.650Z,7.03
2023-04-27T14:41:28.528Z,7.47
2023-04-27T14:43:55.122Z,3.90
2023-04-27T14:46:22.062Z,8.48
2023-04-27T14:48:49.704Z,5.90
2023-04-27T14:51:16.933Z,8.45
2023-04-27T14:53:44.196Z,7.47
2023-04-27T14:56:11.453Z,8.05
2023-04-27T14:58:38.646Z,7.18
2023-04-27T15:01:06.034Z,6.32
2023-04-27T15:03:33.326Z,5.63
2023-04-27T15:06:02.164Z,6.25
2023-04-27T15:08:30.737Z,7.15
2023-04-27T15:11:00.018Z,5.70
2023-04-27T15:13:27.851Z,8.15
2023-04-27T15:15:59.190Z,6.18
2023-04-27T15:18:25.971Z,8.57
2023-04-27T15:20:53.875Z,7.07
2023-04-27T15:23:21.593Z,6.90
2023-04-27T15:25:48.862Z,9.32
2023-04-27T15:28:18.648Z,8.75
2023-04-27T15:30:45.376Z,6.38
2023-04-27T15:33:13.385Z,9.35
2023-04-27T15:35:40.555Z,4.90
2023-04-27T15:38:08.471Z,7.10
2023-04-27T15:40:35.489Z,11.38
2023-04-27T15:43:02.184Z,6.20
2023-04-27T15:45:29.299Z,8.63
2023-04-27T15:47:56.258Z,7.35
2023-04-27T15:50:23.590Z,8.32
2023-04-27T15:52:50.619Z,7.40
2023-04-27T15:55:17.208Z,7.10
2023-04-27T15:57:43.741Z,10.32
2023-04-27T16:00:11.835Z,6.35
2023-04-27T16:02:39.687Z,10.43
2023-04-27T16:05:07.984Z,8.77
2023-04-27T16:07:36.542Z,7.78
2023-04-27T16:10:04.153Z,7.50
2023-04-27T16:12:31.080Z,9.95
2023-04-27T16:14:58.023Z,9.10
2023-04-27T16:17:29.337Z,9.43
2023-04-27T16:19:56.103Z,5.70
2023-04-27T16:22:23.053Z,7.88
2023-04-27T16:24:50.415Z,8.32
2023-04-27T16:27:17.905Z,8.20
2023-04-27T16:29:44.939Z,7.70
2023-04-27T16:32:11.881Z,6.85
2023-04-27T16:34:38.601Z,11.52
2023-04-27T16:37:05.612Z,14.13
2023-04-27T16:39:32.948Z,9.25
2023-04-27T16:41:59.486Z,10.27
2023-04-27T16:44:26.180Z,8.35
2023-04-27T16:46:52.738Z,8.48
2023-04-27T16:49:19.465Z,10.52
2023-04-27T16:51:46.067Z,7.18
2023-04-27T16:54:16.184Z,8.00
2023-04-27T16:56:42.838Z,6.80
2023-04-27T16:59:12.176Z,8.85
2023-04-27T17:01:39.262Z,9.43
2023-04-27T17:04:06.123Z,6.75
2023-04-27T17:06:33.127Z,9.77
2023-04-27T17:08:59.701Z,11.00
2023-04-27T17:11:26.460Z,7.78
2023-04-27T17:13:53.153Z,8.93
2023-04-27T17:16:20.116Z,7.15
2023-04-27T17:18:47.099Z,8.98
2023-04-27T17:21:13.783Z,8.40
2023-04-27T17:23:43.256Z,11.38
2023-04-27T17:28:37.240Z,11.88
2023-04-27T17:31:03.871Z,9.13
2023-04-27T17:33:30.577Z,10.10
2023-04-27T17:35:57.218Z,8.07
2023-04-27T17:38:23.773Z,9.23
2023-04-27T17:40:50.633Z,7.90
2023-04-27T17:43:17.285Z,9.70
2023-04-27T17:45:43.886Z,6.75
2023-04-27T17:48:10.548Z,9.98
2023-04-27T17:50:38.610Z,8.60
2023-04-27T17:53:05.171Z,10.30
2023-04-27T17:55:32.252Z,7.68
2023-04-27T17:57:58.946Z,13.18
2023-04-27T18:00:25.726Z,8.00
2023-04-27T18:02:52.540Z,9.75
2023-04-27T18:05:19.281Z,8.85
2023-04-27T18:07:49.963Z,12.38
2023-04-27T18:10:16.597Z,8.38
2023-04-27T18:12:43.254Z,10.75
2023-04-27T18:15:10.510Z,9.18
2023-04-27T18:17:37.120Z,13.23
2023-04-27T18:20:09.838Z,12.02
2023-04-27T18:22:39.303Z,18.58
2023-04-27T18:25:06.306Z,42.87
2023-04-27T18:27:32.997Z,30.27
2023-04-27T18:29:59.696Z,14.82
2023-04-27T18:32:26.287Z,15.40
2023-04-27T18:34:53.271Z,9.07
2023-04-27T18:37:19.840Z,7.80
2023-04-27T18:39:46.617Z,10.50
2023-04-27T18:42:13.147Z,11.50
2023-04-27T18:44:40.228Z,11.10
2023-04-27T18:47:07.964Z,9.07
2023-04-27T18:49:34.604Z,10.40
2023-04-27T18:52:01.381Z,20.23
2023-04-27T18:54:27.962Z,12.40
2023-04-27T18:56:54.502Z,12.30
2023-04-27T18:59:21.088Z,11.50
2023-04-27T19:01:47.924Z,11.75
2023-04-27T19:04:14.866Z,14.85
2023-04-27T19:06:41.552Z,12.55
2023-04-27T19:09:33.960Z,17.02
2023-04-27T19:12:03.394Z,21.58
2023-04-27T19:14:31.444Z,21.50
2023-04-27T19:16:58.154Z,17.73
2023-04-27T19:19:25.806Z,15.35
2023-04-27T19:21:52.533Z,17.10
2023-04-27T19:24:19.141Z,11.77
2023-04-27T19:26:46.796Z,10.73
2023-04-27T19:29:13.535Z,13.52
2023-04-27T19:31:40.349Z,8.23
2023-04-27T19:34:07.004Z,8.93
2023-04-27T19:36:33.640Z,9.73
2023-04-27T19:39:00.221Z,10.55
2023-04-27T19:41:26.830Z,10.27
2023-04-27T19:43:53.393Z,8.55
2023-04-27T19:46:20.039Z,10.32
2023-04-27T19:48:46.760Z,9.98
2023-04-27T19:51:13.377Z,11.93
2023-04-27T19:53:40.015Z,16.88
2023-04-27T19:56:07.342Z,20.77
2023-04-27T19:58:35.722Z,19.58
2023-04-27T20:01:02.915Z,10.95
2023-04-27T20:03:30.308Z,11.02
2023-04-27T20:05:57.081Z,14.35
2023-04-27T20:08:23.760Z,9.82
2023-04-27T20:10:50.399Z,11.52
2023-04-27T20:13:16.966Z,7.47
2023-04-27T20:15:44.399Z,14.20
2023-04-27T20:18:11.211Z,7.03
2023-04-27T20:20:37.879Z,5.57
2023-04-27T20:23:04.510Z,5.70
2023-04-27T20:25:32.748Z,6.85
2023-04-27T20:27:59.316Z,7.13
2023-04-27T20:30:27.681Z,7.15
2023-04-27T20:32:55.258Z,5.82
2023-04-27T20:35:22.278Z,6.82
2023-04-27T20:37:48.861Z,5.28
2023-04-27T20:40:17.878Z,7.90
2023-04-27T20:42:45.632Z,9.55
2023-04-27T20:45:12.754Z,8.98
2023-04-27T20:47:39.333Z,7.38
2023-04-27T20:50:07.770Z,11.02
2023-04-27T20:52:34.835Z,9.35
2023-04-27T20:55:02.740Z,6.82
2023-04-27T20:57:29.380Z,5.35
2023-04-27T20:59:56.066Z,8.18
2023-04-27T21:02:22.769Z,7.57
2023-04-27T21:04:49.534Z,6.65
2023-04-27T21:07:16.178Z,5.47
2023-04-27T21:09:42.770Z,10.90
2023-04-27T21:12:09.569Z,7.78
2023-04-27T21:14:36.349Z,5.85
2023-04-27T21:17:03.050Z,6.65
2023-04-27T21:19:29.611Z,7.90
2023-04-27T21:21:56.289Z,9.30
2023-04-27T21:24:23.056Z,12.50
2023-04-27T21:26:49.783Z,4.68
2023-04-27T21:29:16.465Z,7.10
2023-04-27T21:31:42.990Z,5.15
2023-04-27T21:34:09.751Z,6.47
2023-04-27T21:36:37.162Z,6.63
2023-04-27T21:39:03.837Z,5.35
2023-04-27T21:41:30.433Z,6.15
2023-04-27T21:43:56.951Z,6.00
2023-04-27T21:46:24.090Z,8.13
2023-04-27T21:48:50.766Z,6.47
2023-04-27T21:51:17.413Z,7.20
2023-04-27T21:53:43.948Z,6.85
2023-04-27T21:56:10.675Z,6.60
2023-04-27T21:58:37.259Z,8.32
2023-04-27T22:01:04.123Z,6.30
2023-04-27T22:03:30.776Z,7.05
2023-04-27T22:05:57.609Z,6.80
2023-04-27T22:08:24.775Z,6.85
2023-04-27T22:10:51.404Z,9.05
2023-04-27T22:13:19.426Z,8.00
2023-04-27T22:15:47.171Z,7.93
2023-04-27T22:18:14.861Z,6.82
2023-04-27T22:20:42.587Z,8.38
2023-04-27T22:23:09.846Z,7.22
2023-04-27T22:25:36.522Z,7.03
2023-04-27T22:28:03.153Z,7.93
2023-04-27T22:30:30.754Z,7.75
2023-04-27T22:32:57.741Z,8.18
2023-04-27T22:35:27.611Z,8.18
2023-04-27T22:38:03.865Z,5.45
2023-04-27T22:40:30.469Z,7.28
2023-04-27T22:42:57.074Z,6.07
2023-04-27T22:45:23.690Z,8.88
2023-04-27T22:47:50.523Z,10.30
2023-04-27T22:50:17.131Z,5.65
2023-04-27T22:52:44.064Z,5.95
2023-04-27T22:55:12.088Z,8.30
2023-04-27T22:57:39.769Z,5.63
2023-04-27T23:00:10.873Z,12.50
2023-04-27T23:02:38.955Z,6.18
2023-04-27T23:05:07.051Z,6.85
2023-04-27T23:07:34.181Z,10.02
2023-04-27T23:10:02.871Z,5.68
2023-04-27T23:12:30.760Z,8.33
2023-04-27T23:14:58.177Z,7.00
2023-04-27T23:17:30.710Z,6.25
2023-04-27T23:19:58.827Z,10.50
2023-04-27T23:22:26.259Z,10.25
2023-04-27T23:24:53.805Z,6.65
2023-04-27T23:27:21.488Z,14.52
2023-04-27T23:29:48.160Z,6.68
2023-04-27T23:32:14.728Z,10.07
2023-04-27T23:34:41.345Z,6.53
2023-04-27T23:37:08.196Z,8.82
2023-04-27T23:39:34.712Z,5.80
2023-04-27T23:42:01.804Z,6.43
2023-04-27T23:44:28.434Z,9.88
2023-04-27T23:46:55.064Z,7.13
2023-04-27T23:49:21.723Z,6.85
2023-04-27T23:51:49.911Z,5.38
2023-04-27T23:54:16.692Z,7.93
2023-04-27T23:56:43.480Z,8.73
2023-04-27T23:59:11.049Z,5.93
